sensor_id;sensor_type;location;lat;lon;timestamp;pressure;altitude;pressure_sealevel;temperature
64916;BMP280;51427;-27.442;153.014;2023-06-26T00:02:01;101697.38;;;22.40
64916;BMP280;51427;-27.442;153.014;2023-06-26T00:04:29;101681.69;;;22.66
64916;BMP280;51427;-27.442;153.014;2023-06-26T00:06:56;101678.28;;;22.87
64916;BMP280;51427;-27.442;153.014;2023-06-26T00:09:23;101683.28;;;22.89
64916;BMP280;51427;-27.442;153.014;2023-06-26T00:11:50;101684.00;;;22.80
64916;BMP280;51427;-27.442;153.014;2023-06-26T00:14:18;101688.16;;;22.81
64916;BMP280;51427;-27.442;153.014;2023-06-26T00:16:47;101683.03;;;22.92
64916;BMP280;51427;-27.442;153.014;2023-06-26T00:19:18;101666.69;;;22.94
64916;BMP280;51427;-27.442;153.014;2023-06-26T00:21:45;101669.84;;;22.87
64916;BMP280;51427;-27.442;153.014;2023-06-26T00:24:15;101668.06;;;23.29
64916;BMP280;51427;-27.442;153.014;2023-06-26T00:26:45;101665.94;;;23.14
64916;BMP280;51427;-27.442;153.014;2023-06-26T00:29:12;101663.53;;;22.91
64916;BMP280;51427;-27.442;153.014;2023-06-26T00:31:39;101657.06;;;22.98
64916;BMP280;51427;-27.442;153.014;2023-06-26T00:34:07;101655.16;;;23.11
64916;BMP280;51427;-27.442;153.014;2023-06-26T00:36:34;101660.72;;;23.36
64916;BMP280;51427;-27.442;153.014;2023-06-26T00:39:01;101659.63;;;23.49
64916;BMP280;51427;-27.442;153.014;2023-06-26T00:41:30;101653.31;;;23.33
64916;BMP280;51427;-27.442;153.014;2023-06-26T00:43:57;101647.97;;;23.36
64916;BMP280;51427;-27.442;153.014;2023-06-26T00:46:24;101647.28;;;23.34
64916;BMP280;51427;-27.442;153.014;2023-06-26T00:48:53;101635.06;;;23.37
64916;BMP280;51427;-27.442;153.014;2023-06-26T00:51:21;101647.09;;;23.87
64916;BMP280;51427;-27.442;153.014;2023-06-26T00:53:48;101656.19;;;23.80
64916;BMP280;51427;-27.442;153.014;2023-06-26T00:56:18;101641.16;;;24.07
64916;BMP280;51427;-27.442;153.014;2023-06-26T00:58:46;101640.03;;;24.00
64916;BMP280;51427;-27.442;153.014;2023-06-26T01:01:13;101644.13;;;23.82
64916;BMP280;51427;-27.442;153.014;2023-06-26T01:03:44;101640.03;;;24.00
64916;BMP280;51427;-27.442;153.014;2023-06-26T01:06:15;101627.81;;;24.12
64916;BMP280;51427;-27.442;153.014;2023-06-26T01:08:44;101634.84;;;24.20
64916;BMP280;51427;-27.442;153.014;2023-06-26T01:11:13;101638.22;;;24.11
64916;BMP280;51427;-27.442;153.014;2023-06-26T01:13:42;101639.69;;;24.13
64916;BMP280;51427;-27.442;153.014;2023-06-26T01:16:13;101638.34;;;24.10
64916;BMP280;51427;-27.442;153.014;2023-06-26T01:18:42;101630.97;;;24.25
64916;BMP280;51427;-27.442;153.014;2023-06-26T01:21:12;101629.97;;;24.37
64916;BMP280;51427;-27.442;153.014;2023-06-26T01:24:09;101613.84;;;24.56
64916;BMP280;51427;-27.442;153.014;2023-06-26T01:26:42;101615.47;;;24.57
64916;BMP280;51427;-27.442;153.014;2023-06-26T01:29:10;101600.63;;;24.51
64916;BMP280;51427;-27.442;153.014;2023-06-26T01:31:40;101589.56;;;24.31
64916;BMP280;51427;-27.442;153.014;2023-06-26T01:34:08;101600.25;;;24.16
64916;BMP280;51427;-27.442;153.014;2023-06-26T01:36:35;101594.88;;;24.67
64916;BMP280;51427;-27.442;153.014;2023-06-26T01:39:03;101588.53;;;24.62
64916;BMP280;51427;-27.442;153.014;2023-06-26T01:41:30;101593.50;;;24.06
64916;BMP280;51427;-27.442;153.014;2023-06-26T01:54:42;101569.66;;;24.44
64916;BMP280;51427;-27.442;153.014;2023-06-26T01:57:13;101569.41;;;24.47
64916;BMP280;51427;-27.442;153.014;2023-06-26T01:59:41;101560.22;;;25.29
64916;BMP280;51427;-27.442;153.014;2023-06-26T02:02:09;101564.50;;;25.38
64916;BMP280;51427;-27.442;153.014;2023-06-26T02:04:36;101548.06;;;25.41
64916;BMP280;51427;-27.442;153.014;2023-06-26T02:07:04;101546.47;;;25.30
64916;BMP280;51427;-27.442;153.014;2023-06-26T02:09:31;101539.13;;;25.45
64916;BMP280;51427;-27.442;153.014;2023-06-26T02:11:58;101534.63;;;25.20
64916;BMP280;51427;-27.442;153.014;2023-06-26T02:14:25;101521.66;;;25.76
64916;BMP280;51427;-27.442;153.014;2023-06-26T02:16:52;101529.66;;;25.18
64916;BMP280;51427;-27.442;153.014;2023-06-26T02:19:20;101526.69;;;25.04
64916;BMP280;51427;-27.442;153.014;2023-06-26T02:21:48;101513.31;;;25.19
64916;BMP280;51427;-27.442;153.014;2023-06-26T02:24:16;101511.41;;;25.31
64916;BMP280;51427;-27.442;153.014;2023-06-26T02:26:43;101510.31;;;25.33
64916;BMP280;51427;-27.442;153.014;2023-06-26T02:29:10;101500.75;;;25.71
64916;BMP280;51427;-27.442;153.014;2023-06-26T02:31:37;101498.47;;;25.32
64916;BMP280;51427;-27.442;153.014;2023-06-26T02:34:05;101491.34;;;25.53
64916;BMP280;51427;-27.442;153.014;2023-06-26T02:36:33;101488.53;;;25.10
64916;BMP280;51427;-27.442;153.014;2023-06-26T02:39:00;101480.38;;;25.24
64916;BMP280;51427;-27.442;153.014;2023-06-26T02:41:27;101481.00;;;25.00
64916;BMP280;51427;-27.442;153.014;2023-06-26T02:43:54;101476.78;;;25.17
64916;BMP280;51427;-27.442;153.014;2023-06-26T02:46:21;101477.22;;;24.94
64916;BMP280;51427;-27.442;153.014;2023-06-26T02:48:49;101468.31;;;25.17
64916;BMP280;51427;-27.442;153.014;2023-06-26T02:51:16;101449.09;;;25.57
64916;BMP280;51427;-27.442;153.014;2023-06-26T02:53:43;101451.00;;;25.82
64916;BMP280;51427;-27.442;153.014;2023-06-26T02:56:10;101445.28;;;25.44
64916;BMP280;51427;-27.442;153.014;2023-06-26T02:58:37;101445.19;;;25.36
64916;BMP280;51427;-27.442;153.014;2023-06-26T03:01:04;101446.19;;;25.16
64916;BMP280;51427;-27.442;153.014;2023-06-26T03:03:32;101449.16;;;25.11
64916;BMP280;51427;-27.442;153.014;2023-06-26T03:06:09;101438.00;;;25.93
64916;BMP280;51427;-27.442;153.014;2023-06-26T03:08:41;101434.31;;;25.51
64916;BMP280;51427;-27.442;153.014;2023-06-26T03:11:09;101429.94;;;25.88
64916;BMP280;51427;-27.442;153.014;2023-06-26T03:13:37;101437.72;;;25.42
64916;BMP280;51427;-27.442;153.014;2023-06-26T03:16:05;101440.47;;;25.31
64916;BMP280;51427;-27.442;153.014;2023-06-26T03:18:32;101427.22;;;25.62
64916;BMP280;51427;-27.442;153.014;2023-06-26T03:21:00;101432.75;;;25.67
64916;BMP280;51427;-27.442;153.014;2023-06-26T03:23:27;101434.81;;;25.64
64916;BMP280;51427;-27.442;153.014;2023-06-26T03:25:54;101430.31;;;25.39
64916;BMP280;51427;-27.442;153.014;2023-06-26T03:28:22;101420.81;;;25.22
64916;BMP280;51427;-27.442;153.014;2023-06-26T03:30:49;101427.13;;;25.64
64916;BMP280;51427;-27.442;153.014;2023-06-26T03:33:16;101417.69;;;25.55
64916;BMP280;51427;-27.442;153.014;2023-06-26T03:35:43;101418.28;;;25.76
64916;BMP280;51427;-27.442;153.014;2023-06-26T03:38:11;101420.09;;;25.66
64916;BMP280;51427;-27.442;153.014;2023-06-26T03:40:38;101424.06;;;25.78
64916;BMP280;51427;-27.442;153.014;2023-06-26T03:43:05;101403.78;;;25.84
64916;BMP280;51427;-27.442;153.014;2023-06-26T03:45:32;101407.16;;;25.58
64916;BMP280;51427;-27.442;153.014;2023-06-26T03:47:59;101415.66;;;26.02
64916;BMP280;51427;-27.442;153.014;2023-06-26T03:50:27;101414.25;;;26.25
64916;BMP280;51427;-27.442;153.014;2023-06-26T03:52:54;101414.00;;;25.67
64916;BMP280;51427;-27.442;153.014;2023-06-26T03:55:21;101413.31;;;25.74
64916;BMP280;51427;-27.442;153.014;2023-06-26T03:57:50;101419.38;;;26.25
64916;BMP280;51427;-27.442;153.014;2023-06-26T04:00:17;101417.88;;;25.71
64916;BMP280;51427;-27.442;153.014;2023-06-26T04:02:44;101408.63;;;25.34
64916;BMP280;51427;-27.442;153.014;2023-06-26T04:05:12;101410.81;;;25.99
64916;BMP280;51427;-27.442;153.014;2023-06-26T04:07:39;101403.84;;;25.92
64916;BMP280;51427;-27.442;153.014;2023-06-26T04:10:07;101409.56;;;25.59
64916;BMP280;51427;-27.442;153.014;2023-06-26T04:12:34;101408.06;;;25.66
64916;BMP280;51427;-27.442;153.014;2023-06-26T04:15:02;101412.25;;;25.67
64916;BMP280;51427;-27.442;153.014;2023-06-26T04:17:29;101405.00;;;25.80
64916;BMP280;51427;-27.442;153.014;2023-06-26T04:19:56;101406.56;;;25.91
64916;BMP280;51427;-27.442;153.014;2023-06-26T04:22:23;101406.06;;;25.87
64916;BMP280;51427;-27.442;153.014;2023-06-26T04:24:52;101412.75;;;25.71
64916;BMP280;51427;-27.442;153.014;2023-06-26T04:27:19;101414.97;;;25.66
64916;BMP280;51427;-27.442;153.014;2023-06-26T04:29:46;101425.50;;;25.63
64916;BMP280;51427;-27.442;153.014;2023-06-26T04:32:17;101420.72;;;25.95
64916;BMP280;51427;-27.442;153.014;2023-06-26T04:34:44;101426.50;;;25.79
64916;BMP280;51427;-27.442;153.014;2023-06-26T04:37:11;101438.56;;;25.33
64916;BMP280;51427;-27.442;153.014;2023-06-26T04:39:42;101432.34;;;25.89
64916;BMP280;51427;-27.442;153.014;2023-06-26T04:42:09;101423.72;;;25.90
64916;BMP280;51427;-27.442;153.014;2023-06-26T04:44:38;101417.75;;;25.90
64916;BMP280;51427;-27.442;153.014;2023-06-26T04:47:07;101411.38;;;25.76
64916;BMP280;51427;-27.442;153.014;2023-06-26T04:49:35;101420.88;;;25.40
64916;BMP280;51427;-27.442;153.014;2023-06-26T04:52:02;101429.28;;;25.32
64916;BMP280;51427;-27.442;153.014;2023-06-26T04:54:30;101426.56;;;25.70
64916;BMP280;51427;-27.442;153.014;2023-06-26T04:56:57;101420.84;;;25.76
64916;BMP280;51427;-27.442;153.014;2023-06-26T04:59:26;101414.09;;;25.48
64916;BMP280;51427;-27.442;153.014;2023-06-26T05:01:53;101420.34;;;25.36
64916;BMP280;51427;-27.442;153.014;2023-06-26T05:04:20;101424.09;;;24.96
64916;BMP280;51427;-27.442;153.014;2023-06-26T05:06:49;101417.91;;;25.61
64916;BMP280;51427;-27.442;153.014;2023-06-26T05:09:16;101412.16;;;25.33
64916;BMP280;51427;-27.442;153.014;2023-06-26T05:11:43;101413.13;;;25.22
64916;BMP280;51427;-27.442;153.014;2023-06-26T05:14:10;101410.56;;;24.77
64916;BMP280;51427;-27.442;153.014;2023-06-26T05:16:39;101401.56;;;24.63
64916;BMP280;51427;-27.442;153.014;2023-06-26T05:19:06;101400.88;;;24.61
64916;BMP280;51427;-27.442;153.014;2023-06-26T05:21:34;101402.09;;;24.58
64916;BMP280;51427;-27.442;153.014;2023-06-26T05:24:03;101413.59;;;24.44
64916;BMP280;51427;-27.442;153.014;2023-06-26T05:26:30;101408.03;;;24.58
64916;BMP280;51427;-27.442;153.014;2023-06-26T05:28:58;101409.91;;;24.56
64916;BMP280;51427;-27.442;153.014;2023-06-26T05:31:25;101422.59;;;24.39
64916;BMP280;51427;-27.442;153.014;2023-06-26T05:33:55;101408.72;;;24.41
64916;BMP280;51427;-27.442;153.014;2023-06-26T05:36:25;101416.25;;;24.14
64916;BMP280;51427;-27.442;153.014;2023-06-26T05:38:55;101424.19;;;24.12
64916;BMP280;51427;-27.442;153.014;2023-06-26T05:41:23;101430.38;;;24.18
64916;BMP280;51427;-27.442;153.014;2023-06-26T05:43:50;101424.19;;;24.12
64916;BMP280;51427;-27.442;153.014;2023-06-26T05:46:20;101428.47;;;24.02
64916;BMP280;51427;-27.442;153.014;2023-06-26T05:48:48;101420.41;;;23.97
64916;BMP280;51427;-27.442;153.014;2023-06-26T05:51:15;101427.28;;;23.96
64916;BMP280;51427;-27.442;153.014;2023-06-26T05:53:42;101441.47;;;23.80
64916;BMP280;51427;-27.442;153.014;2023-06-26T05:56:10;101433.00;;;23.70
64916;BMP280;51427;-27.442;153.014;2023-06-26T05:58:37;101439.75;;;23.71
64916;BMP280;51427;-27.442;153.014;2023-06-26T06:01:05;101434.28;;;23.55
64916;BMP280;51427;-27.442;153.014;2023-06-26T06:03:32;101438.69;;;23.53
64916;BMP280;51427;-27.442;153.014;2023-06-26T06:05:59;101440.59;;;23.51
64916;BMP280;51427;-27.442;153.014;2023-06-26T06:08:26;101446.34;;;23.44
64916;BMP280;51427;-27.442;153.014;2023-06-26T06:10:53;101440.94;;;23.37
64916;BMP280;51427;-27.442;153.014;2023-06-26T06:13:21;101439.69;;;23.22
64916;BMP280;51427;-27.442;153.014;2023-06-26T06:15:48;101452.91;;;23.07
64916;BMP280;51427;-27.442;153.014;2023-06-26T06:18:16;101456.94;;;23.10
64916;BMP280;51427;-27.442;153.014;2023-06-26T06:20:43;101447.53;;;22.90
64916;BMP280;51427;-27.442;153.014;2023-06-26T06:23:11;101450.59;;;22.84
64916;BMP280;51427;-27.442;153.014;2023-06-26T06:25:38;101442.50;;;22.79
64916;BMP280;51427;-27.442;153.014;2023-06-26T06:28:05;101442.69;;;22.67
64916;BMP280;51427;-27.442;153.014;2023-06-26T06:30:33;101453.50;;;22.59
64916;BMP280;51427;-27.442;153.014;2023-06-26T06:33:00;101446.81;;;22.47
64916;BMP280;51427;-27.442;153.014;2023-06-26T06:35:27;101452.53;;;22.40
64916;BMP280;51427;-27.442;153.014;2023-06-26T06:37:54;101444.78;;;22.30
64916;BMP280;51427;-27.442;153.014;2023-06-26T06:40:21;101446.44;;;22.31
64916;BMP280;51427;-27.442;153.014;2023-06-26T06:42:48;101448.31;;;22.19
64916;BMP280;51427;-27.442;153.014;2023-06-26T06:45:16;101441.81;;;22.15
64916;BMP280;51427;-27.442;153.014;2023-06-26T06:47:43;101455.47;;;22.14
64916;BMP280;51427;-27.442;153.014;2023-06-26T06:50:10;101453.47;;;21.97
64916;BMP280;51427;-27.442;153.014;2023-06-26T06:52:38;101452.97;;;21.92
64916;BMP280;51427;-27.442;153.014;2023-06-26T06:55:07;101463.19;;;21.92
64916;BMP280;51427;-27.442;153.014;2023-06-26T06:57:39;101464.72;;;21.83
64916;BMP280;51427;-27.442;153.014;2023-06-26T07:00:08;101467.50;;;21.70
64916;BMP280;51427;-27.442;153.014;2023-06-26T07:02:41;101476.66;;;21.72
64916;BMP280;51427;-27.442;153.014;2023-06-26T07:05:09;101477.13;;;21.66
64916;BMP280;51427;-27.442;153.014;2023-06-26T07:07:37;101473.56;;;21.58
64916;BMP280;51427;-27.442;153.014;2023-06-26T07:10:09;101489.84;;;21.44
64916;BMP280;51427;-27.442;153.014;2023-06-26T07:12:37;101487.31;;;21.44
64916;BMP280;51427;-27.442;153.014;2023-06-26T07:15:06;101492.47;;;21.43
64916;BMP280;51427;-27.442;153.014;2023-06-26T07:17:34;101504.88;;;21.36
64916;BMP280;51427;-27.442;153.014;2023-06-26T07:20:02;101510.75;;;21.26
64916;BMP280;51427;-27.442;153.014;2023-06-26T07:22:37;101513.38;;;21.14
64916;BMP280;51427;-27.442;153.014;2023-06-26T07:25:04;101518.44;;;21.03
64916;BMP280;51427;-27.442;153.014;2023-06-26T07:27:38;101529.56;;;21.02
64916;BMP280;51427;-27.442;153.014;2023-06-26T07:30:06;101532.19;;;20.90
64916;BMP280;51427;-27.442;153.014;2023-06-26T07:32:37;101542.00;;;20.94
64916;BMP280;51427;-27.442;153.014;2023-06-26T07:35:05;101558.00;;;20.96
64916;BMP280;51427;-27.442;153.014;2023-06-26T07:37:32;101553.50;;;20.76
64916;BMP280;51427;-27.442;153.014;2023-06-26T07:39:59;101555.16;;;20.77
64916;BMP280;51427;-27.442;153.014;2023-06-26T07:42:27;101554.53;;;20.74
64916;BMP280;51427;-27.442;153.014;2023-06-26T07:44:54;101564.81;;;20.72
64916;BMP280;51427;-27.442;153.014;2023-06-26T07:47:21;101564.81;;;20.72
64916;BMP280;51427;-27.442;153.014;2023-06-26T07:49:48;101577.06;;;20.67
64916;BMP280;51427;-27.442;153.014;2023-06-26T07:52:16;101590.63;;;20.55
64916;BMP280;51427;-27.442;153.014;2023-06-26T07:54:43;101583.94;;;20.42
64916;BMP280;51427;-27.442;153.014;2023-06-26T07:57:10;101591.19;;;20.59
64916;BMP280;51427;-27.442;153.014;2023-06-26T07:59:38;101593.47;;;20.51
64916;BMP280;51427;-27.442;153.014;2023-06-26T08:02:05;101592.28;;;20.32
64916;BMP280;51427;-27.442;153.014;2023-06-26T08:04:33;101605.38;;;20.38
64916;BMP280;51427;-27.442;153.014;2023-06-26T08:07:01;101598.81;;;20.36
64916;BMP280;51427;-27.442;153.014;2023-06-26T08:09:30;101606.16;;;20.28
64916;BMP280;51427;-27.442;153.014;2023-06-26T08:11:58;101610.66;;;20.12
64916;BMP280;51427;-27.442;153.014;2023-06-26T08:14:25;101625.56;;;20.04
64916;BMP280;51427;-27.442;153.014;2023-06-26T08:16:53;101619.09;;;20.00
64916;BMP280;51427;-27.442;153.014;2023-06-26T08:19:20;101619.78;;;20.02
64916;BMP280;51427;-27.442;153.014;2023-06-26T08:21:48;101625.47;;;19.93
64916;BMP280;51427;-27.442;153.014;2023-06-26T08:24:15;101630.34;;;19.96
64916;BMP280;51427;-27.442;153.014;2023-06-26T08:26:46;101630.31;;;19.84
64916;BMP280;51427;-27.442;153.014;2023-06-26T08:29:14;101635.81;;;19.65
64916;BMP280;51427;-27.442;153.014;2023-06-26T08:31:43;101635.63;;;19.68
64916;BMP280;51427;-27.442;153.014;2023-06-26T08:34:10;101638.06;;;19.70
64916;BMP280;51427;-27.442;153.014;2023-06-26T08:36:37;101647.06;;;19.61
64916;BMP280;51427;-27.442;153.014;2023-06-26T08:39:05;101648.41;;;19.54
64916;BMP280;51427;-27.442;153.014;2023-06-26T08:41:32;101654.00;;;19.59
64916;BMP280;51427;-27.442;153.014;2023-06-26T08:43:59;101652.03;;;19.51
64916;BMP280;51427;-27.442;153.014;2023-06-26T08:46:28;101658.44;;;19.44
64916;BMP280;51427;-27.442;153.014;2023-06-26T08:48:57;101659.94;;;19.46
64916;BMP280;51427;-27.442;153.014;2023-06-26T08:51:28;101666.91;;;19.30
64916;BMP280;51427;-27.442;153.014;2023-06-26T08:54:00;101670.66;;;19.25
64916;BMP280;51427;-27.442;153.014;2023-06-26T08:56:32;101679.78;;;19.27
64916;BMP280;51427;-27.442;153.014;2023-06-26T08:59:03;101666.25;;;19.14
64916;BMP280;51427;-27.442;153.014;2023-06-26T09:01:31;101674.44;;;19.06
64916;BMP280;51427;-27.442;153.014;2023-06-26T09:03:58;101674.88;;;18.98
64916;BMP280;51427;-27.442;153.014;2023-06-26T09:06:26;101682.34;;;18.73
64916;BMP280;51427;-27.442;153.014;2023-06-26T09:08:53;101683.19;;;18.74
64916;BMP280;51427;-27.442;153.014;2023-06-26T09:11:20;101681.88;;;18.95
64916;BMP280;51427;-27.442;153.014;2023-06-26T09:13:48;101690.53;;;18.78
64916;BMP280;51427;-27.442;153.014;2023-06-26T09:16:15;101703.66;;;18.71
64916;BMP280;51427;-27.442;153.014;2023-06-26T09:18:44;101705.84;;;18.63
64916;BMP280;51427;-27.442;153.014;2023-06-26T09:21:12;101697.56;;;18.73
64916;BMP280;51427;-27.442;153.014;2023-06-26T09:23:42;101692.66;;;18.84
64916;BMP280;51427;-27.442;153.014;2023-06-26T09:26:11;101691.56;;;18.88
64916;BMP280;51427;-27.442;153.014;2023-06-26T09:28:38;101691.56;;;18.88
64916;BMP280;51427;-27.442;153.014;2023-06-26T09:31:06;101694.56;;;18.81
64916;BMP280;51427;-27.442;153.014;2023-06-26T09:33:38;101701.16;;;18.97
64916;BMP280;51427;-27.442;153.014;2023-06-26T09:36:10;101699.09;;;18.90
64916;BMP280;51427;-27.442;153.014;2023-06-26T09:38:45;101710.16;;;18.61
64916;BMP280;51427;-27.442;153.014;2023-06-26T09:41:18;101712.91;;;18.58
64916;BMP280;51427;-27.442;153.014;2023-06-26T09:43:50;101714.78;;;18.55
64916;BMP280;51427;-27.442;153.014;2023-06-26T09:48:45;101720.53;;;18.58
64916;BMP280;51427;-27.442;153.014;2023-06-26T09:51:12;101715.06;;;18.50
64916;BMP280;51427;-27.442;153.014;2023-06-26T09:53:42;101726.47;;;18.57
64916;BMP280;51427;-27.442;153.014;2023-06-26T09:56:16;101731.09;;;18.51
64916;BMP280;51427;-27.442;153.014;2023-06-26T09:58:48;101740.97;;;18.41
64916;BMP280;51427;-27.442;153.014;2023-06-26T10:01:16;101740.16;;;18.27
64916;BMP280;51427;-27.442;153.014;2023-06-26T10:03:44;101743.94;;;18.34
64916;BMP280;51427;-27.442;153.014;2023-06-26T10:06:12;101747.38;;;18.33
64916;BMP280;51427;-27.442;153.014;2023-06-26T10:08:40;101748.00;;;18.22
64916;BMP280;51427;-27.442;153.014;2023-06-26T10:11:14;101744.22;;;18.29
64916;BMP280;51427;-27.442;153.014;2023-06-26T10:13:43;101751.34;;;18.23
64916;BMP280;51427;-27.442;153.014;2023-06-26T10:16:21;101753.91;;;18.08
64916;BMP280;51427;-27.442;153.014;2023-06-26T10:18:51;101761.47;;;18.23
64916;BMP280;51427;-27.442;153.014;2023-06-26T10:21:21;101775.13;;;18.20
64916;BMP280;51427;-27.442;153.014;2023-06-26T10:23:51;101778.03;;;18.15
64916;BMP280;51427;-27.442;153.014;2023-06-26T10:26:21;101786.88;;;17.92
64916;BMP280;51427;-27.442;153.014;2023-06-26T10:28:50;101793.25;;;18.15
64916;BMP280;51427;-27.442;153.014;2023-06-26T10:31:21;101804.28;;;17.98
64916;BMP280;51427;-27.442;153.014;2023-06-26T10:33:50;101799.66;;;18.20
64916;BMP280;51427;-27.442;153.014;2023-06-26T10:36:19;101806.00;;;18.13
64916;BMP280;51427;-27.442;153.014;2023-06-26T10:38:55;101808.53;;;18.13
64916;BMP280;51427;-27.442;153.014;2023-06-26T10:41:23;101825.81;;;18.20
64916;BMP280;51427;-27.442;153.014;2023-06-26T10:44:11;101820.19;;;18.15
64916;BMP280;51427;-27.442;153.014;2023-06-26T10:46:58;101824.91;;;18.21
64916;BMP280;51427;-27.442;153.014;2023-06-26T10:49:29;101827.16;;;18.12
64916;BMP280;51427;-27.442;153.014;2023-06-26T10:52:01;101821.31;;;18.10
64916;BMP280;51427;-27.442;153.014;2023-06-26T10:54:32;101826.66;;;17.90
64916;BMP280;51427;-27.442;153.014;2023-06-26T10:57:03;101824.69;;;17.95
64916;BMP280;51427;-27.442;153.014;2023-06-26T10:59:31;101824.13;;;18.06
64916;BMP280;51427;-27.442;153.014;2023-06-26T11:02:05;101829.03;;;17.93
64916;BMP280;51427;-27.442;153.014;2023-06-26T11:04:49;101828.00;;;18.11
64916;BMP280;51427;-27.442;153.014;2023-06-26T11:10:02;101828.47;;;17.88
64916;BMP280;51427;-27.442;153.014;2023-06-26T11:12:35;101836.00;;;17.90
64916;BMP280;51427;-27.442;153.014;2023-06-26T11:15:17;101844.00;;;17.82
64916;BMP280;51427;-27.442;153.014;2023-06-26T11:17:45;101842.22;;;17.69
64916;BMP280;51427;-27.442;153.014;2023-06-26T11:20:14;101856.44;;;17.71
64916;BMP280;51427;-27.442;153.014;2023-06-26T11:22:45;101844.59;;;17.57
64916;BMP280;51427;-27.442;153.014;2023-06-26T11:25:12;101852.50;;;17.51
64916;BMP280;51427;-27.442;153.014;2023-06-26T11:27:43;101859.94;;;17.54
64916;BMP280;51427;-27.442;153.014;2023-06-26T11:30:22;101850.44;;;17.26
64916;BMP280;51427;-27.442;153.014;2023-06-26T11:32:49;101863.03;;;17.11
64916;BMP280;51427;-27.442;153.014;2023-06-26T11:35:23;101861.72;;;17.04
64916;BMP280;51427;-27.442;153.014;2023-06-26T11:38:01;101856.25;;;17.12
64916;BMP280;51427;-27.442;153.014;2023-06-26T11:40:35;101859.84;;;16.59
64916;BMP280;51427;-27.442;153.014;2023-06-26T11:43:03;101861.72;;;16.72
64916;BMP280;51427;-27.442;153.014;2023-06-26T11:45:31;101871.00;;;16.72
64916;BMP280;51427;-27.442;153.014;2023-06-26T11:48:00;101870.78;;;16.59
64916;BMP280;51427;-27.442;153.014;2023-06-26T11:50:27;101871.31;;;16.66
64916;BMP280;51427;-27.442;153.014;2023-06-26T11:52:59;101873.84;;;16.49
64916;BMP280;51427;-27.442;153.014;2023-06-26T11:55:39;101878.53;;;16.88
64916;BMP280;51427;-27.442;153.014;2023-06-26T11:58:07;101879.94;;;16.28
64916;BMP280;51427;-27.442;153.014;2023-06-26T12:00:34;101890.31;;;16.56
64916;BMP280;51427;-27.442;153.014;2023-06-26T12:03:01;101893.97;;;16.15
64916;BMP280;51427;-27.442;153.014;2023-06-26T12:05:29;101894.19;;;16.29
64916;BMP280;51427;-27.442;153.014;2023-06-26T12:07:57;101886.31;;;16.17
64916;BMP280;51427;-27.442;153.014;2023-06-26T12:10:26;101893.59;;;15.87
64916;BMP280;51427;-27.442;153.014;2023-06-26T12:12:53;101885.53;;;16.16
64916;BMP280;51427;-27.442;153.014;2023-06-26T12:15:25;101890.34;;;15.85
64916;BMP280;51427;-27.442;153.014;2023-06-26T12:17:52;101898.56;;;15.72
64916;BMP280;51427;-27.442;153.014;2023-06-26T12:20:23;101897.72;;;15.72
64916;BMP280;51427;-27.442;153.014;2023-06-26T12:22:52;101892.13;;;15.84
64916;BMP280;51427;-27.442;153.014;2023-06-26T12:25:25;101901.94;;;15.89
64916;BMP280;51427;-27.442;153.014;2023-06-26T12:27:52;101904.53;;;15.88
64916;BMP280;51427;-27.442;153.014;2023-06-26T12:30:19;101898.91;;;15.65
64916;BMP280;51427;-27.442;153.014;2023-06-26T12:32:46;101903.88;;;15.85
64916;BMP280;51427;-27.442;153.014;2023-06-26T12:35:14;101896.06;;;15.89
64916;BMP280;51427;-27.442;153.014;2023-06-26T12:37:43;101893.88;;;16.00
64916;BMP280;51427;-27.442;153.014;2023-06-26T12:40:19;101897.72;;;15.90
64916;BMP280;51427;-27.442;153.014;2023-06-26T12:42:48;101879.81;;;15.94
64916;BMP280;51427;-27.442;153.014;2023-06-26T12:45:15;101880.38;;;16.01
64916;BMP280;51427;-27.442;153.014;2023-06-26T12:47:43;101881.03;;;16.04
64916;BMP280;51427;-27.442;153.014;2023-06-26T12:50:11;101887.31;;;16.14
64916;BMP280;51427;-27.442;153.014;2023-06-26T12:52:39;101888.25;;;16.30
64916;BMP280;51427;-27.442;153.014;2023-06-26T12:55:06;101886.41;;;16.15
64916;BMP280;51427;-27.442;153.014;2023-06-26T12:57:34;101881.41;;;16.32
64916;BMP280;51427;-27.442;153.014;2023-06-26T13:00:01;101885.28;;;16.22
64916;BMP280;51427;-27.442;153.014;2023-06-26T13:02:29;101877.53;;;16.25
64916;BMP280;51427;-27.442;153.014;2023-06-26T13:04:56;101892.13;;;15.84
64916;BMP280;51427;-27.442;153.014;2023-06-26T13:07:23;101894.13;;;15.77
64916;BMP280;51427;-27.442;153.014;2023-06-26T13:09:51;101891.66;;;15.76
64916;BMP280;51427;-27.442;153.014;2023-06-26T13:12:19;101874.63;;;15.97
64916;BMP280;51427;-27.442;153.014;2023-06-26T13:14:46;101862.06;;;16.14
64916;BMP280;51427;-27.442;153.014;2023-06-26T13:17:14;101855.44;;;16.12
64916;BMP280;51427;-27.442;153.014;2023-06-26T13:19:41;101862.84;;;15.80
64916;BMP280;51427;-27.442;153.014;2023-06-26T13:22:09;101860.13;;;16.19
64916;BMP280;51427;-27.442;153.014;2023-06-26T13:24:37;101850.78;;;16.21
64916;BMP280;51427;-27.442;153.014;2023-06-26T13:27:04;101853.44;;;16.18
64916;BMP280;51427;-27.442;153.014;2023-06-26T13:29:32;101840.78;;;16.01
64916;BMP280;51427;-27.442;153.014;2023-06-26T13:31:59;101840.50;;;16.07
64916;BMP280;51427;-27.442;153.014;2023-06-26T13:34:28;101828.47;;;16.12
64916;BMP280;51427;-27.442;153.014;2023-06-26T13:36:56;101833.22;;;16.18
64916;BMP280;51427;-27.442;153.014;2023-06-26T13:39:23;101821.28;;;16.05
64916;BMP280;51427;-27.442;153.014;2023-06-26T13:41:50;101809.09;;;16.13
64916;BMP280;51427;-27.442;153.014;2023-06-26T13:44:17;101812.44;;;16.13
64916;BMP280;51427;-27.442;153.014;2023-06-26T13:46:44;101810.19;;;16.07